Time;durP1;ratioP1;P1;durP2;ratioP2;P2;SDS_P1;SDS_P2;PMS_P1;PMS_P2;Temp;Humidity;BMP_temperature;BMP_pressure;BME280_temperature;BME280_humidity;BME280_pressure;Samples;Min_cycle;Max_cycle;Signal;HPM_P1;HPM_P2
2024/02/26 00:00:10;;;;;;;5.20;4.67;;;;;;;8.88;74.01;96136.47;5053274;28;20223;-85
2024/02/26 00:02:38;;;;;;;4.70;4.23;;;;;;;8.55;74.38;96092.03;5054679;28;20570;-84
2024/02/26 00:05:06;;;;;;;5.37;4.87;;;;;;;8.62;73.49;96093.56;5054645;28;20660;-85
2024/02/26 00:07:33;;;;;;;5.43;4.37;;;;;;;8.59;74.84;96126.75;5054213;28;20205;-85
2024/02/26 00:10:00;;;;;;;7.07;5.27;;;;;;;8.64;74.67;96118.75;5054542;28;20259;-85
2024/02/26 00:12:26;;;;;;;5.90;4.63;;;;;;;8.62;75.20;96130.72;5054484;28;20197;-85
2024/02/26 00:14:54;;;;;;;26.00;15.07;;;;;;;8.54;75.19;96130.25;5055100;28;20611;-85
2024/02/26 00:17:22;;;;;;;9.40;7.20;;;;;;;8.53;75.25;96114.63;5053369;28;20221;-85
2024/02/26 00:19:48;;;;;;;5.70;4.50;;;;;;;8.75;74.29;96124.69;5053727;28;20202;-85
2024/02/26 00:22:15;;;;;;;5.50;5.00;;;;;;;8.60;74.26;96101.03;5053688;28;20194;-85
2024/02/26 00:24:42;;;;;;;5.40;4.90;;;;;;;8.79;73.95;96120.41;5054662;28;20259;-85
2024/02/26 00:27:09;;;;;;;8.90;6.70;;;;;;;8.34;74.20;96101.31;5054569;28;20206;-85
2024/02/26 00:29:36;;;;;;;6.83;6.23;;;;;;;8.50;74.91;96123.16;5054503;28;20205;-84
2024/02/26 00:32:02;;;;;;;7.63;6.87;;;;;;;8.62;74.39;96120.09;5054695;28;20210;-85
2024/02/26 00:34:31;;;;;;;5.30;4.80;;;;;;;8.70;74.20;96111.50;5054681;28;20217;-85
2024/02/26 00:36:57;;;;;;;6.87;5.00;;;;;;;8.28;73.32;96068.75;5053920;28;20773;-85
2024/02/26 00:39:24;;;;;;;7.53;5.37;;;;;;;8.32;74.82;96109.56;5054219;28;20543;-85
2024/02/26 00:41:52;;;;;;;6.97;4.87;;;;;;;8.49;74.64;96103.03;5052781;28;20194;-85
2024/02/26 00:44:18;;;;;;;5.20;4.70;;;;;;;8.44;74.83;96085.31;5053005;28;20293;-85
2024/02/26 00:46:45;;;;;;;5.23;4.73;;;;;;;8.56;74.98;96106.13;5053479;28;20260;-85
2024/02/26 00:49:12;;;;;;;5.00;4.53;;;;;;;8.40;75.32;96076.34;5054413;28;20248;-85
2024/02/26 00:51:40;;;;;;;5.43;4.93;;;;;;;8.40;75.10;96083.50;5054181;28;20531;-85
2024/02/26 00:54:07;;;;;;;6.73;4.77;;;;;;;8.50;73.84;96062.16;5054296;28;20263;-85
2024/02/26 00:56:34;;;;;;;5.70;5.20;;;;;;;8.49;74.38;96093.19;5053127;28;20202;-85
2024/02/26 00:59:01;;;;;;;6.17;5.67;;;;;;;8.54;74.97;96093.13;5053767;28;20643;-85
2024/02/26 01:01:27;;;;;;;5.27;4.77;;;;;;;8.65;74.80;96088.47;5054175;28;20230;-84
2024/02/26 01:03:54;;;;;;;5.93;4.60;;;;;;;8.68;74.53;96089.78;5054129;28;20280;-85
2024/02/26 01:06:22;;;;;;;5.20;4.67;;;;;;;8.78;74.35;96084.31;5053878;28;20569;-85
2024/02/26 01:08:50;;;;;;;5.60;5.10;;;;;;;8.55;74.44;96048.81;5053508;28;20233;-85
2024/02/26 01:11:17;;;;;;;7.13;5.63;;;;;;;8.70;75.24;96084.97;5053782;28;20201;-85
2024/02/26 01:13:44;;;;;;;6.00;4.87;;;;;;;8.40;75.34;96028.63;5052983;28;20210;-85
2024/02/26 01:16:11;;;;;;;5.83;5.20;;;;;;;8.68;75.01;96087.13;5062517;28;20197;-85
2024/02/26 01:18:39;;;;;;;7.07;5.23;;;;;;;8.58;74.18;96074.78;5057831;28;20313;-85
2024/02/26 01:21:08;;;;;;;9.80;6.00;;;;;;;8.68;74.98;96079.16;5052844;28;20198;-85
2024/02/26 01:23:35;;;;;;;5.77;5.23;;;;;;;8.79;74.54;96092.00;5052876;28;20232;-85
2024/02/26 01:26:04;;;;;;;6.27;4.67;;;;;;;8.48;74.51;96048.38;5053463;28;20198;-85
2024/02/26 01:28:31;;;;;;;7.00;4.93;;;;;;;8.51;74.64;96027.38;5053502;28;20660;-85
2024/02/26 01:30:59;;;;;;;5.90;5.30;;;;;;;8.26;74.75;95975.47;5051777;28;20260;-85
2024/02/26 01:33:26;;;;;;;5.17;4.67;;;;;;;8.97;74.40;96061.22;5053254;28;20669;-85
2024/02/26 01:35:53;;;;;;;6.90;4.93;;;;;;;8.70;74.90;96037.22;5053114;28;20274;-85
2024/02/26 01:38:20;;;;;;;5.10;4.60;;;;;;;8.67;75.09;96019.22;5052633;28;20225;-85
2024/02/26 01:40:47;;;;;;;7.10;4.77;;;;;;;8.80;74.89;96063.59;5053393;28;20574;-85
2024/02/26 01:43:15;;;;;;;5.83;4.97;;;;;;;8.69;75.82;96059.53;5053202;28;20205;-84
2024/02/26 01:45:42;;;;;;;6.70;5.10;;;;;;;8.64;75.56;96054.28;5053155;28;20205;-84
2024/02/26 01:48:10;;;;;;;5.43;4.93;;;;;;;8.40;75.61;96019.84;5051527;28;20629;-85
2024/02/26 01:50:37;;;;;;;5.37;4.50;;;;;;;8.80;75.56;96061.75;5051882;28;20195;-85
2024/02/26 01:53:05;;;;;;;5.53;4.90;;;;;;;8.62;75.43;96059.88;5052141;28;20715;-85
2024/02/26 01:55:32;;;;;;;6.20;5.37;;;;;;;8.65;75.91;96059.31;5052481;28;20738;-85
2024/02/26 01:57:59;;;;;;;9.60;5.73;;;;;;;8.74;75.93;96060.22;5052925;28;20221;-85
2024/02/26 02:00:28;;;;;;;6.27;5.67;;;;;;;8.78;75.65;96060.44;5052347;28;20225;-85
2024/02/26 02:02:55;;;;;;;11.03;5.47;;;;;;;8.75;75.84;96058.34;5052602;28;20664;-85
2024/02/26 02:05:23;;;;;;;6.13;5.43;;;;;;;8.69;75.83;96054.22;5053541;28;20198;-85
2024/02/26 02:07:51;;;;;;;7.87;5.40;;;;;;;8.82;75.49;96061.44;5051764;28;20611;-85
2024/02/26 02:10:22;;;;;;;6.83;5.30;;;;;;;8.58;75.63;96066.81;5052262;28;20209;-85
2024/02/26 02:12:49;;;;;;;6.90;6.00;;;;;;;8.47;75.93;96044.16;5051205;28;20627;-85
2024/02/26 02:15:16;;;;;;;6.10;5.50;;;;;;;8.27;76.03;96011.50;5052328;28;20651;-85
2024/02/26 02:17:44;;;;;;;6.77;5.03;;;;;;;8.66;75.85;96076.78;5052329;28;20673;-85
2024/02/26 02:20:16;;;;;;;5.40;4.90;;;;;;;8.88;75.31;96051.56;5050684;28;20198;-84
2024/02/26 02:22:45;;;;;;;5.30;4.77;;;;;;;8.64;75.14;96030.41;5052460;28;20225;-85
2024/02/26 02:25:12;;;;;;;6.47;5.40;;;;;;;8.64;74.91;96022.47;5051186;28;20672;-85
2024/02/26 02:27:39;;;;;;;6.10;5.43;;;;;;;8.65;74.69;96042.59;5051383;28;20616;-85
2024/02/26 02:30:07;;;;;;;5.93;5.40;;;;;;;8.58;74.83;96058.84;5052178;28;20604;-85
2024/02/26 02:32:34;;;;;;;7.23;5.10;;;;;;;8.30;75.72;96023.41;5052079;28;20208;-85
2024/02/26 02:35:01;;;;;;;5.63;5.03;;;;;;;8.55;76.00;96062.88;5052180;28;20226;-85
2024/02/26 02:37:28;;;;;;;5.70;5.20;;;;;;;8.27;75.61;96003.53;5052099;28;20271;-84
2024/02/26 02:39:57;;;;;;;5.67;5.00;;;;;;;8.78;75.53;96063.09;5051780;28;20194;-85
2024/02/26 02:42:24;;;;;;;5.70;4.87;;;;;;;8.49;75.79;96044.66;5050865;28;20194;-85
2024/02/26 02:44:51;;;;;;;7.50;5.47;;;;;;;8.35;76.63;96033.94;5051995;28;20671;-85
2024/02/26 02:47:18;;;;;;;5.87;5.27;;;;;;;8.63;76.64;96055.34;5050593;28;20668;-85
2024/02/26 02:49:44;;;;;;;6.07;5.37;;;;;;;8.72;76.20;96048.34;5051766;28;20660;-85
2024/02/26 02:52:11;;;;;;;7.23;5.40;;;;;;;8.72;76.22;96057.09;5052117;28;20549;-84
2024/02/26 02:54:40;;;;;;;5.70;5.10;;;;;;;8.45;76.18;96025.88;5050658;28;20194;-84
2024/02/26 02:57:08;;;;;;;6.63;6.00;;;;;;;8.34;76.08;96054.34;5051186;28;20190;-85
2024/02/26 02:59:36;;;;;;;5.83;5.23;;;;;;;8.38;76.07;96051.97;5051415;28;20201;-85
2024/02/26 03:02:03;;;;;;;5.53;5.03;;;;;;;8.01;76.67;95991.66;5050894;28;20598;-85
2024/02/26 03:04:30;;;;;;;10.77;5.17;;;;;;;8.20;76.89;96060.63;5052143;28;20197;-85
2024/02/26 03:06:57;;;;;;;5.27;4.60;;;;;;;8.47;77.24;96054.75;5051618;28;20229;-85
2024/02/26 03:09:24;;;;;;;5.00;4.50;;;;;;;8.15;76.86;95984.63;5050559;28;20666;-85
2024/02/26 03:11:51;;;;;;;7.20;5.90;;;;;;;8.44;76.51;96013.72;5051528;28;20229;-85
2024/02/26 03:14:19;;;;;;;8.40;5.20;;;;;;;8.70;76.49;96061.09;5051688;28;20201;-85
2024/02/26 03:16:46;;;;;;;5.40;4.90;;;;;;;8.50;77.01;96060.28;5051595;28;20209;-84
2024/02/26 03:19:15;;;;;;;5.57;4.87;;;;;;;8.43;77.71;96051.09;5053022;28;20221;-85
2024/02/26 03:21:42;;;;;;;7.73;5.53;;;;;;;8.51;76.81;96059.19;5056001;28;20202;-84
2024/02/26 03:24:10;;;;;;;6.63;5.00;;;;;;;8.23;77.75;96044.94;5055966;28;20202;-85
2024/02/26 03:26:37;;;;;;;6.23;5.57;;;;;;;8.65;77.21;96061.16;5054131;28;20288;-84
2024/02/26 03:29:03;;;;;;;9.07;6.27;;;;;;;8.62;76.85;96065.16;5055451;28;20213;-85
2024/02/26 03:31:32;;;;;;;5.03;4.57;;;;;;;8.49;77.21;96066.66;5054553;28;20206;-85
2024/02/26 03:33:58;;;;;;;5.80;4.97;;;;;;;8.62;76.72;96061.72;5055374;28;20201;-85
2024/02/26 03:36:25;;;;;;;7.97;7.03;;;;;;;8.02;76.82;96001.22;5055710;28;20198;-85
2024/02/26 03:38:52;;;;;;;10.50;6.93;;;;;;;8.08;77.19;96061.81;5056026;28;20225;-85
2024/02/26 03:41:19;;;;;;;8.53;6.67;;;;;;;7.92;76.95;96041.88;5055250;28;20205;-85
2024/02/26 03:43:46;;;;;;;9.67;6.13;;;;;;;8.08;77.66;96064.47;5055286;28;20194;-85
2024/02/26 03:46:13;;;;;;;7.93;5.70;;;;;;;7.96;75.99;96021.69;5055062;28;20193;-84
2024/02/26 03:48:41;;;;;;;9.70;5.70;;;;;;;8.15;76.12;96040.28;5054413;28;20193;-88
2024/02/26 03:51:09;;;;;;;6.13;4.97;;;;;;;8.21;76.00;96025.91;5056043;28;20197;-88
2024/02/26 03:53:36;;;;;;;6.10;5.10;;;;;;;7.98;76.17;96008.94;5056783;28;20268;-91
2024/02/26 03:56:05;;;;;;;5.57;5.07;;;;;;;8.09;76.57;96046.69;5056661;28;20198;-92
2024/02/26 03:58:31;;;;;;;6.17;5.57;;;;;;;7.88;76.97;96032.91;5054762;28;20684;-92
2024/02/26 04:00:58;;;;;;;8.47;6.57;;;;;;;7.74;76.55;95990.38;5055630;28;20221;-91
2024/02/26 04:03:25;;;;;;;6.93;6.10;;;;;;;7.68;77.21;96001.34;5055812;28;20252;-92
2024/02/26 04:05:54;;;;;;;9.97;8.97;;;;;;;7.97;77.02;96033.06;5041936;28;20226;-91
2024/02/26 04:08:20;;;;;;;9.10;7.00;;;;;;;7.79;77.07;96030.09;5036002;28;20210;-92
2024/02/26 04:10:47;;;;;;;9.60;8.67;;;;;;;7.91;77.26;96047.47;5045534;28;20198;-92
2024/02/26 04:13:14;;;;;;;6.93;6.13;;;;;;;7.65;77.97;96012.50;5056281;28;20255;-93
2024/02/26 04:15:41;;;;;;;4.80;4.40;;;;;;;7.47;77.76;96028.03;5056100;28;20593;-91
2024/02/26 04:18:08;;;;;;;6.93;5.53;;;;;;;7.78;77.79;96044.41;5054655;28;20222;-90
2024/02/26 04:20:35;;;;;;;4.63;4.20;;;;;;;7.83;78.19;96046.22;5056047;28;20283;-92
2024/02/26 04:23:04;;;;;;;6.80;5.40;;;;;;;7.72;77.82;96002.34;5055443;28;20251;-91
2024/02/26 04:25:30;;;;;;;6.20;5.70;;;;;;;8.11;76.99;96033.97;5055614;28;20205;-92
2024/02/26 04:27:57;;;;;;;5.70;5.10;;;;;;;8.26;76.64;96043.59;5054298;28;20202;-90
2024/02/26 04:30:24;;;;;;;5.27;4.77;;;;;;;8.33;76.32;96039.53;5051243;28;20206;-90
2024/02/26 04:32:51;;;;;;;5.67;5.13;;;;;;;8.44;76.31;96052.66;5054096;28;20738;-90
2024/02/26 04:35:18;;;;;;;6.00;5.47;;;;;;;8.20;76.27;96042.84;5052472;28;20205;-90
2024/02/26 04:37:45;;;;;;;7.20;6.50;;;;;;;8.03;76.69;96053.16;5053508;28;20202;-89
2024/02/26 04:40:14;;;;;;;7.83;5.80;;;;;;;8.13;77.58;96068.13;5053796;28;20201;-89
2024/02/26 04:42:41;;;;;;;8.83;6.40;;;;;;;7.81;77.64;95998.78;5053708;28;20248;-90
2024/02/26 04:45:08;;;;;;;6.80;6.10;;;;;;;7.99;77.21;96015.81;5054176;28;20275;-90
2024/02/26 04:47:37;;;;;;;5.63;5.13;;;;;;;8.14;77.55;96057.25;5053377;28;20292;-89
2024/02/26 04:50:04;;;;;;;11.27;9.00;;;;;;;7.92;76.22;96009.28;5052885;28;20255;-89
2024/02/26 04:52:31;;;;;;;77.20;37.80;;;;;;;8.18;76.75;96050.31;5054311;28;20287;-90
2024/02/26 04:54:59;;;;;;;70.23;36.00;;;;;;;7.97;76.41;96033.84;5048404;28;20198;-90
2024/02/26 04:57:28;;;;;;;159.50;107.43;;;;;;;7.83;77.17;96032.97;5032544;28;20199;-91
2024/02/26 04:59:55;;;;;;;20.23;16.30;;;;;;;7.75;76.91;95999.16;5044451;28;20221;-92
2024/02/26 05:02:22;;;;;;;17.00;14.00;;;;;;;7.66;76.41;95992.88;5061314;28;20201;-89
2024/02/26 05:04:49;;;;;;;8.10;7.23;;;;;;;8.22;77.14;96069.88;5054286;28;20201;-90
2024/02/26 05:07:17;;;;;;;10.20;6.87;;;;;;;7.98;77.37;96054.00;5061516;28;20186;-90
2024/02/26 05:09:44;;;;;;;10.03;8.40;;;;;;;8.04;77.83;96060.81;5037447;28;20206;-89
2024/02/26 05:12:11;;;;;;;9.47;7.37;;;;;;;7.63;78.21;96002.19;5054992;28;20711;-89
2024/02/26 05:14:40;;;;;;;7.53;6.73;;;;;;;7.72;78.05;96018.25;5054762;28;20343;-89
2024/02/26 05:17:06;;;;;;;8.07;6.67;;;;;;;7.81;78.30;96038.53;5053151;28;20205;-88
2024/02/26 05:19:33;;;;;;;9.13;7.53;;;;;;;7.84;78.29;96077.72;5053689;28;20626;-86
2024/02/26 05:22:00;;;;;;;14.03;8.10;;;;;;;7.74;78.45;96077.03;5053776;28;20225;-89
2024/02/26 05:24:27;;;;;;;11.03;7.50;;;;;;;7.77;78.63;96053.41;5053337;28;20200;-90
2024/02/26 05:26:55;;;;;;;7.43;6.70;;;;;;;7.81;77.99;96070.31;5054572;28;20201;-89
2024/02/26 05:29:22;;;;;;;10.40;6.53;;;;;;;7.81;77.83;96061.59;5053087;28;20236;-91
2024/02/26 05:31:50;;;;;;;11.47;8.60;;;;;;;7.77;78.39;96071.16;5053357;28;20205;-85
2024/02/26 05:34:17;;;;;;;13.20;10.77;;;;;;;7.34;78.58;96041.91;5053864;28;20608;-84
2024/02/26 05:36:43;;;;;;;13.97;10.47;;;;;;;7.91;77.73;96071.31;5051993;28;20197;-84
2024/02/26 05:39:11;;;;;;;12.07;9.60;;;;;;;7.33;78.66;96027.88;5052228;28;20221;-84
2024/02/26 05:41:38;;;;;;;11.53;9.37;;;;;;;7.66;79.43;96090.88;5052521;28;20212;-85
2024/02/26 05:44:05;;;;;;;14.27;8.67;;;;;;;7.75;80.27;96087.34;5051796;28;20206;-84
2024/02/26 05:46:32;;;;;;;11.83;8.47;;;;;;;7.85;79.94;96073.19;5052743;28;20202;-84
2024/02/26 05:49:00;;;;;;;9.87;8.83;;;;;;;8.13;79.51;96074.25;5053137;28;20205;-84
2024/02/26 05:51:27;;;;;;;10.37;8.10;;;;;;;8.18;79.04;96079.47;5050498;28;20620;-84
2024/02/26 05:53:54;;;;;;;10.97;9.87;;;;;;;8.03;79.96;96098.19;5051437;28;20206;-85
2024/02/26 05:56:22;;;;;;;10.67;9.10;;;;;;;7.73;80.40;96096.63;5050957;28;20284;-85
2024/02/26 05:58:48;;;;;;;10.90;8.23;;;;;;;7.50;80.50;96091.00;5051445;28;20213;-84
2024/02/26 06:01:16;;;;;;;11.03;9.47;;;;;;;7.94;79.61;96113.94;5051555;28;20217;-84
2024/02/26 06:03:43;;;;;;;11.40;9.53;;;;;;;7.67;80.67;96114.44;5051315;28;20283;-84
2024/02/26 06:06:12;;;;;;;10.93;9.80;;;;;;;7.85;80.56;96124.31;5051361;28;20289;-84
2024/02/26 06:08:38;;;;;;;10.13;9.00;;;;;;;7.75;80.63;96123.66;5052011;28;20208;-84
2024/02/26 06:11:06;;;;;;;11.17;9.43;;;;;;;7.85;80.18;96081.16;5051559;28;20251;-85
2024/02/26 06:13:33;;;;;;;10.77;8.83;;;;;;;8.00;80.78;96112.00;5051379;28;20289;-85
2024/02/26 06:16:00;;;;;;;12.30;10.10;;;;;;;7.98;80.73;96096.41;5051137;28;20256;-84
2024/02/26 06:18:27;;;;;;;11.20;10.10;;;;;;;8.13;80.83;96116.66;5051526;28;20659;-84
2024/02/26 06:20:54;;;;;;;10.63;9.10;;;;;;;8.03;80.32;96114.88;5051222;28;20198;-85
2024/02/26 06:23:22;;;;;;;11.73;10.53;;;;;;;8.09;80.37;96119.06;5051540;28;20201;-85
2024/02/26 06:25:49;;;;;;;12.20;10.17;;;;;;;8.39;79.48;96117.19;5051575;28;20202;-84
2024/02/26 06:28:15;;;;;;;11.27;10.07;;;;;;;8.43;79.00;96118.19;5050943;28;20256;-85
2024/02/26 06:30:42;;;;;;;12.37;10.43;;;;;;;8.58;78.60;96119.88;5051121;28;20198;-84
2024/02/26 06:33:09;;;;;;;12.93;11.60;;;;;;;8.56;78.91;96128.13;5051050;28;20228;-84
2024/02/26 06:35:35;;;;;;;11.03;9.73;;;;;;;8.57;78.17;96110.34;5051407;28;20205;-84
2024/02/26 06:38:02;;;;;;;12.43;9.20;;;;;;;8.52;78.11;96121.81;5051336;28;20210;-84
2024/02/26 06:40:30;;;;;;;14.90;9.77;;;;;;;8.36;78.86;96111.63;5051225;28;20201;-84
2024/02/26 06:42:57;;;;;;;12.83;9.33;;;;;;;8.53;78.96;96139.28;5050561;28;20205;-85
2024/02/26 06:45:24;;;;;;;10.13;9.17;;;;;;;8.68;78.67;96126.94;5051441;28;20194;-83
2024/02/26 06:47:51;;;;;;;15.90;9.53;;;;;;;8.69;79.03;96129.28;5051207;28;20205;-84
2024/02/26 06:50:17;;;;;;;10.47;9.37;;;;;;;8.70;79.75;96127.41;5050970;28;20198;-84
2024/02/26 06:52:45;;;;;;;24.03;14.90;;;;;;;8.68;79.69;96121.63;5051418;28;20610;-84
2024/02/26 06:55:13;;;;;;;31.40;18.53;;;;;;;8.61;80.27;96123.81;5050547;28;20632;-84
2024/02/26 06:57:41;;;;;;;16.47;12.53;;;;;;;8.72;80.19;96134.03;5050787;28;20194;-86
2024/02/26 07:00:14;;;;;;;24.77;16.03;;;;;;;8.68;80.02;96133.03;5050756;28;20798;-83
2024/02/26 07:02:40;;;;;;;15.17;11.50;;;;;;;8.63;80.61;96117.16;5050524;28;20201;-84
2024/02/26 07:05:08;;;;;;;11.73;10.07;;;;;;;8.98;80.58;96123.88;5050445;28;20205;-84
2024/02/26 07:07:34;;;;;;;16.07;9.67;;;;;;;8.85;80.05;96118.47;5050783;28;20209;-84
2024/02/26 07:10:03;;;;;;;9.90;8.90;;;;;;;9.02;80.44;96121.41;5048763;28;20205;-84
2024/02/26 07:12:30;;;;;;;11.50;10.30;;;;;;;9.09;80.01;96134.31;5049981;28;20696;-84
2024/02/26 07:14:58;;;;;;;10.33;9.10;;;;;;;9.02;79.76;96132.03;5051188;28;20255;-83
2024/02/26 07:17:25;;;;;;;11.93;8.67;;;;;;;8.62;80.18;96083.75;5050794;28;20608;-84
2024/02/26 07:19:52;;;;;;;10.90;9.73;;;;;;;9.04;80.31;96132.53;5050244;28;20233;-84
2024/02/26 07:22:19;;;;;;;10.47;9.37;;;;;;;9.19;79.83;96137.63;5050814;28;20601;-83
2024/02/26 07:24:46;;;;;;;10.00;9.00;;;;;;;9.22;79.41;96131.75;5050948;28;20271;-83
2024/02/26 07:27:13;;;;;;;9.80;8.60;;;;;;;9.31;79.30;96126.56;5050342;28;20292;-84
2024/02/26 07:29:42;;;;;;;12.20;10.13;;;;;;;9.45;78.71;96124.78;5050519;28;20197;-84
2024/02/26 07:32:11;;;;;;;11.20;9.30;;;;;;;9.43;78.72;96134.88;5050464;28;20256;-83
2024/02/26 07:34:41;;;;;;;10.13;8.53;;;;;;;9.34;79.41;96128.66;5050579;28;20230;-83
2024/02/26 07:37:08;;;;;;;10.17;9.13;;;;;;;9.38;78.97;96137.63;5050702;28;20260;-84
2024/02/26 07:39:35;;;;;;;12.97;9.53;;;;;;;9.32;78.65;96113.00;5050397;28;20229;-83
2024/02/26 07:42:02;;;;;;;11.00;8.70;;;;;;;9.41;78.48;96131.75;5050540;28;20213;-84
2024/02/26 07:44:28;;;;;;;12.13;9.23;;;;;;;9.49;78.79;96128.44;5050741;28;20206;-84
2024/02/26 07:46:55;;;;;;;9.87;8.87;;;;;;;9.46;78.26;96136.97;5050882;28;20194;-84
2024/02/26 07:49:23;;;;;;;13.17;10.33;;;;;;;9.44;78.72;96138.31;5050396;28;20206;-84
2024/02/26 07:51:50;;;;;;;13.97;9.07;;;;;;;9.48;78.58;96126.81;5050380;28;20244;-84
2024/02/26 07:54:19;;;;;;;10.63;9.47;;;;;;;9.50;78.97;96124.69;5049976;28;20213;-84
2024/02/26 07:56:46;;;;;;;10.50;8.83;;;;;;;9.52;79.00;96103.94;5050478;28;20286;-84
2024/02/26 07:59:12;;;;;;;11.40;9.47;;;;;;;9.68;78.33;96128.38;5050183;28;20225;-83
2024/02/26 08:01:41;;;;;;;10.23;8.73;;;;;;;9.66;78.31;96133.19;5050196;28;20229;-83
2024/02/26 08:04:08;;;;;;;10.37;9.37;;;;;;;9.63;78.54;96123.13;5050125;28;20210;-84
2024/02/26 08:06:36;;;;;;;12.83;8.83;;;;;;;9.74;77.99;96131.75;5052711;28;20202;-84
2024/02/26 08:09:04;;;;;;;16.47;9.93;;;;;;;9.64;77.95;96129.25;5053766;28;20647;-84
2024/02/26 08:11:31;;;;;;;11.47;8.67;;;;;;;9.86;77.61;96123.31;5053917;28;20208;-84
2024/02/26 08:13:58;;;;;;;9.37;7.83;;;;;;;9.87;76.68;96111.56;5053393;28;20189;-84
2024/02/26 08:16:25;;;;;;;11.33;8.97;;;;;;;9.78;77.28;96106.16;5053770;28;20289;-83
2024/02/26 08:18:52;;;;;;;12.50;9.17;;;;;;;9.75;77.39;96135.97;5053477;28;20205;-84
2024/02/26 08:21:19;;;;;;;9.10;8.17;;;;;;;9.90;77.15;96135.72;5053645;28;20194;-83
2024/02/26 08:23:47;;;;;;;9.80;8.77;;;;;;;10.08;76.69;96144.72;5053867;28;20201;-84
2024/02/26 08:26:14;;;;;;;10.50;9.40;;;;;;;10.21;76.12;96145.81;5053901;28;20268;-83
2024/02/26 08:28:41;;;;;;;9.97;8.97;;;;;;;10.00;75.80;96132.09;5053201;28;20209;-83
2024/02/26 08:31:08;;;;;;;9.03;8.10;;;;;;;10.03;76.11;96118.22;5053257;28;20195;-82
2024/02/26 08:33:35;;;;;;;9.80;8.80;;;;;;;10.43;75.95;96143.28;5053914;28;20198;-83
2024/02/26 08:36:05;;;;;;;10.53;8.40;;;;;;;10.53;75.11;96142.28;5053178;28;20273;-83
2024/02/26 08:38:34;;;;;;;13.73;8.57;;;;;;;10.25;74.83;96102.41;5053188;28;20735;-83
2024/02/26 08:41:02;;;;;;;10.33;9.03;;;;;;;10.57;74.66;96135.31;5053561;28;20221;-83
2024/02/26 08:43:29;;;;;;;12.20;8.93;;;;;;;10.56;74.38;96138.25;5052839;28;20291;-84
2024/02/26 08:45:56;;;;;;;16.97;9.83;;;;;;;10.75;74.23;96141.59;5053407;28;20558;-83
2024/02/26 08:48:22;;;;;;;14.43;9.27;;;;;;;10.85;73.33;96135.28;5053089;28;20586;-84
2024/02/26 08:50:49;;;;;;;11.33;8.13;;;;;;;10.65;73.42;96108.00;5052938;28;20198;-83
2024/02/26 08:53:16;;;;;;;9.97;7.80;;;;;;;11.08;72.46;96144.13;5053365;28;20197;-83
2024/02/26 08:55:43;;;;;;;13.50;8.80;;;;;;;10.89;72.25;96105.09;5053262;28;20198;-83
2024/02/26 08:58:11;;;;;;;9.00;7.57;;;;;;;11.16;71.83;96130.88;5052697;28;20247;-83
2024/02/26 09:00:38;;;;;;;12.17;8.30;;;;;;;11.19;72.32;96124.16;5052831;28;20237;-83
2024/02/26 09:03:05;;;;;;;10.10;7.90;;;;;;;11.26;72.03;96125.31;5052944;28;20201;-83
2024/02/26 09:05:32;;;;;;;8.70;7.37;;;;;;;11.25;70.61;96097.09;5052722;28;20208;-84
2024/02/26 09:07:58;;;;;;;9.50;7.10;;;;;;;11.60;70.76;96121.31;5053131;28;20194;-84
2024/02/26 09:10:25;;;;;;;7.80;7.00;;;;;;;11.69;69.51;96124.84;5053058;28;20267;-83
2024/02/26 09:12:52;;;;;;;8.80;6.83;;;;;;;11.82;69.03;96114.41;5052519;28;20194;-83
2024/02/26 09:15:20;;;;;;;7.00;6.40;;;;;;;11.77;68.62;96110.00;5052460;28;20193;-83
2024/02/26 09:17:49;;;;;;;9.63;5.90;;;;;;;12.01;67.89;96104.34;5052311;28;20213;-83
2024/02/26 09:20:19;;;;;;;11.23;6.57;;;;;;;12.17;66.63;96110.06;5052483;28;20233;-83
2024/02/26 09:22:46;;;;;;;8.77;7.67;;;;;;;12.38;65.41;96104.97;5052059;28;20197;-83
2024/02/26 09:25:15;;;;;;;10.33;7.90;;;;;;;12.62;64.53;96108.03;5052395;28;20209;-84
2024/02/26 09:27:42;;;;;;;12.50;8.47;;;;;;;12.84;63.96;96099.09;5052167;28;20710;-83
2024/02/26 09:30:09;;;;;;;12.03;8.00;;;;;;;12.99;62.93;96087.19;5052498;28;20197;-83
2024/02/26 09:32:38;;;;;;;7.63;6.83;;;;;;;12.97;63.49;96100.06;5052767;28;20205;-82
2024/02/26 09:35:06;;;;;;;9.63;6.07;;;;;;;12.97;63.05;96095.53;5051963;28;20230;-85
2024/02/26 09:37:33;;;;;;;7.53;5.93;;;;;;;12.38;63.69;96028.34;5052342;28;20220;-83
2024/02/26 09:40:00;;;;;;;6.83;5.43;;;;;;;12.70;63.30;96093.91;5052025;28;20692;-83
2024/02/26 09:42:28;;;;;;;6.60;5.47;;;;;;;12.58;63.48;96066.22;5052174;28;20194;-83
2024/02/26 09:44:55;;;;;;;8.23;6.50;;;;;;;12.86;62.71;96088.91;5051902;28;20281;-83
2024/02/26 09:47:24;;;;;;;6.40;5.80;;;;;;;13.25;60.94;96095.25;5052029;28;20229;-83
2024/02/26 09:49:54;;;;;;;7.07;5.37;;;;;;;13.62;60.42;96087.66;5051507;28;20205;-82
2024/02/26 09:52:21;;;;;;;6.67;5.40;;;;;;;13.92;58.81;96077.84;5052296;28;20255;-83
2024/02/26 09:54:49;;;;;;;6.63;5.17;;;;;;;14.13;57.99;96072.56;5052044;28;20205;-83
2024/02/26 09:57:17;;;;;;;7.60;5.40;;;;;;;13.60;57.15;96031.06;5051586;28;20297;-83
2024/02/26 09:59:45;;;;;;;5.63;5.00;;;;;;;13.50;57.95;96082.19;5051443;28;20218;-83
2024/02/26 10:02:13;;;;;;;6.10;4.90;;;;;;;13.31;57.70;96053.09;5051566;28;20201;-83
2024/02/26 10:04:41;;;;;;;7.63;4.30;;;;;;;13.62;56.25;96083.09;5051697;28;20197;-83
2024/02/26 10:07:12;;;;;;;5.37;4.23;;;;;;;13.74;55.66;96087.78;5051213;28;20665;-83
2024/02/26 10:09:39;;;;;;;4.73;4.07;;;;;;;13.97;55.27;96080.31;5051701;28;20205;-83
2024/02/26 10:12:09;;;;;;;9.83;4.13;;;;;;;14.13;53.92;96070.69;5051664;28;20224;-85
2024/02/26 10:14:36;;;;;;;8.57;4.10;;;;;;;14.08;50.80;96051.34;5051420;28;20201;-83
2024/02/26 10:17:03;;;;;;;4.57;3.60;;;;;;;14.16;50.56;96016.50;5050995;28;20229;-83
2024/02/26 10:19:31;;;;;;;4.87;4.37;;;;;;;14.12;50.48;95996.06;5051450;28;20560;-83
2024/02/26 10:21:58;;;;;;;3.80;3.40;;;;;;;14.27;48.02;96010.78;5051325;28;20614;-83
2024/02/26 10:24:27;;;;;;;3.13;2.83;;;;;;;14.50;48.13;96048.81;5051284;28;20622;-83
2024/02/26 10:26:55;;;;;;;32.30;13.90;;;;;;;14.52;47.09;96060.78;5051015;28;20204;-82
2024/02/26 10:29:24;;;;;;;5.40;3.87;;;;;;;14.58;46.57;96056.00;5051030;28;20216;-83
2024/02/26 10:31:52;;;;;;;14.90;10.80;;;;;;;14.65;45.56;96058.97;5051034;28;20328;-83
2024/02/26 10:34:19;;;;;;;4.60;3.93;;;;;;;14.62;46.63;96051.56;5051235;28;20254;-83
2024/02/26 10:36:46;;;;;;;5.97;4.70;;;;;;;14.52;48.50;96054.59;5051304;28;20194;-83
2024/02/26 10:39:13;;;;;;;9.00;6.43;;;;;;;14.61;49.01;96045.44;5050932;28;20202;-83
2024/02/26 10:41:45;;;;;;;7.03;6.33;;;;;;;14.79;47.90;96043.44;5050921;28;20700;-83
2024/02/26 10:44:12;;;;;;;4.10;3.63;;;;;;;14.60;48.62;96030.47;5051219;28;20207;-83
2024/02/26 10:46:41;;;;;;;4.77;4.30;;;;;;;14.72;48.20;96029.75;5050878;28;20733;-83
2024/02/26 10:49:15;;;;;;;4.83;4.00;;;;;;;15.06;45.71;96028.72;5050957;28;20713;-83
2024/02/26 10:51:45;;;;;;;3.60;2.20;;;;;;;15.52;41.70;96023.41;5038700;28;20552;-83
2024/02/26 10:54:16;;;;;;;4.90;2.40;;;;;;;15.85;39.73;96015.34;5050778;28;20203;-83
2024/02/26 10:56:47;;;;;;;2.90;2.53;;;;;;;16.26;40.08;96016.25;5051100;28;20672;-83
2024/02/26 10:59:15;;;;;;;6.30;3.97;;;;;;;16.54;40.23;96011.75;5050708;28;20599;-83
2024/02/26 11:01:46;;;;;;;3.90;3.60;;;;;;;16.52;38.43;96002.47;5050745;28;20240;-83
2024/02/26 11:04:14;;;;;;;5.67;3.93;;;;;;;16.61;39.26;95995.03;5047955;28;20201;-83
2024/02/26 11:06:41;;;;;;;5.37;3.33;;;;;;;17.00;34.83;95984.69;5038843;28;20202;-83
2024/02/26 11:09:12;;;;;;;6.50;4.07;;;;;;;17.46;34.49;95993.22;5050840;28;20189;-83
2024/02/26 11:11:40;;;;;;;5.10;4.40;;;;;;;17.88;34.18;95987.38;5050652;28;20206;-83
2024/02/26 11:14:10;;;;;;;4.00;2.77;;;;;;;17.65;32.38;95979.09;5050857;28;20205;-84
2024/02/26 11:16:38;;;;;;;4.03;3.50;;;;;;;17.38;32.61;95984.16;5050863;28;20216;-83
2024/02/26 11:19:09;;;;;;;5.37;3.83;;;;;;;16.63;34.89;95985.53;5050527;28;20221;-84
2024/02/26 11:21:40;;;;;;;7.23;5.37;;;;;;;15.90;36.19;95932.69;5050436;28;20710;-83
2024/02/26 11:24:09;;;;;;;7.30;4.57;;;;;;;16.04;36.83;95987.97;5050683;28;20236;-83
2024/02/26 11:26:41;;;;;;;6.80;5.10;;;;;;;16.22;36.74;95991.19;5051000;28;20224;-83
2024/02/26 11:29:11;;;;;;;6.00;4.53;;;;;;;16.13;37.26;95999.38;5039208;28;20197;-84
2024/02/26 11:31:39;;;;;;;7.13;3.80;;;;;;;16.12;36.05;95987.84;5050548;28;20335;-83
2024/02/26 11:34:08;;;;;;;7.03;4.57;;;;;;;16.05;37.62;95986.84;5050478;28;20263;-86
2024/02/26 11:36:35;;;;;;;5.37;3.80;;;;;;;15.89;37.76;95982.13;5050907;28;20612;-83